sensor_id;sensor_type;location;lat;lon;timestamp;P1;durP1;ratioP1;P2;durP2;ratioP2
10458;SDS011;5277;48.722;8.736;2024-01-10T00:01:18;20.67;;;10.30;;
10458;SDS011;5277;48.722;8.736;2024-01-10T00:03:45;21.53;;;10.17;;
10458;SDS011;5277;48.722;8.736;2024-01-10T00:06:11;23.63;;;11.07;;
10458;SDS011;5277;48.722;8.736;2024-01-10T00:08:37;25.37;;;10.40;;
10458;SDS011;5277;48.722;8.736;2024-01-10T00:11:02;22.70;;;11.70;;
10458;SDS011;5277;48.722;8.736;2024-01-10T00:13:29;22.83;;;10.63;;
10458;SDS011;5277;48.722;8.736;2024-01-10T00:15:56;23.60;;;10.87;;
10458;SDS011;5277;48.722;8.736;2024-01-10T00:18:23;25.33;;;11.10;;
10458;SDS011;5277;48.722;8.736;2024-01-10T00:20:49;20.87;;;10.93;;
10458;SDS011;5277;48.722;8.736;2024-01-10T00:23:15;20.33;;;10.93;;
10458;SDS011;5277;48.722;8.736;2024-01-10T00:25:41;23.53;;;10.50;;
10458;SDS011;5277;48.722;8.736;2024-01-10T00:28:06;20.47;;;10.87;;
10458;SDS011;5277;48.722;8.736;2024-01-10T00:30:32;21.47;;;11.63;;
10458;SDS011;5277;48.722;8.736;2024-01-10T00:32:57;18.83;;;10.47;;
10458;SDS011;5277;48.722;8.736;2024-01-10T00:35:23;22.00;;;11.10;;
10458;SDS011;5277;48.722;8.736;2024-01-10T00:37:48;24.37;;;11.20;;
10458;SDS011;5277;48.722;8.736;2024-01-10T00:40:14;22.63;;;11.00;;
10458;SDS011;5277;48.722;8.736;2024-01-10T00:42:39;25.23;;;11.67;;
10458;SDS011;5277;48.722;8.736;2024-01-10T00:45:05;23.47;;;11.07;;
10458;SDS011;5277;48.722;8.736;2024-01-10T00:47:31;24.87;;;10.73;;
10458;SDS011;5277;48.722;8.736;2024-01-10T00:49:56;22.53;;;11.60;;
10458;SDS011;5277;48.722;8.736;2024-01-10T00:52:22;23.30;;;11.13;;
10458;SDS011;5277;48.722;8.736;2024-01-10T00:54:47;22.80;;;10.73;;
10458;SDS011;5277;48.722;8.736;2024-01-10T00:57:13;22.00;;;11.13;;
10458;SDS011;5277;48.722;8.736;2024-01-10T00:59:40;19.93;;;10.97;;
10458;SDS011;5277;48.722;8.736;2024-01-10T01:02:05;22.37;;;10.43;;
10458;SDS011;5277;48.722;8.736;2024-01-10T01:04:31;23.83;;;10.77;;
10458;SDS011;5277;48.722;8.736;2024-01-10T01:06:56;22.57;;;10.40;;
10458;SDS011;5277;48.722;8.736;2024-01-10T01:09:22;22.70;;;11.33;;
10458;SDS011;5277;48.722;8.736;2024-01-10T01:11:47;23.07;;;11.20;;
10458;SDS011;5277;48.722;8.736;2024-01-10T01:14:13;19.03;;;10.30;;
10458;SDS011;5277;48.722;8.736;2024-01-10T01:16:39;26.10;;;11.03;;
10458;SDS011;5277;48.722;8.736;2024-01-10T01:19:04;22.37;;;11.23;;
10458;SDS011;5277;48.722;8.736;2024-01-10T01:21:30;21.23;;;10.03;;
10458;SDS011;5277;48.722;8.736;2024-01-10T01:23:55;20.93;;;10.60;;
10458;SDS011;5277;48.722;8.736;2024-01-10T01:26:21;25.43;;;11.57;;
10458;SDS011;5277;48.722;8.736;2024-01-10T01:28:47;20.87;;;10.67;;
10458;SDS011;5277;48.722;8.736;2024-01-10T01:31:12;25.37;;;11.10;;
10458;SDS011;5277;48.722;8.736;2024-01-10T01:33:38;24.80;;;11.10;;
10458;SDS011;5277;48.722;8.736;2024-01-10T01:36:04;25.20;;;11.40;;
10458;SDS011;5277;48.722;8.736;2024-01-10T01:38:30;22.50;;;10.03;;
10458;SDS011;5277;48.722;8.736;2024-01-10T01:40:56;22.10;;;10.67;;
10458;SDS011;5277;48.722;8.736;2024-01-10T01:43:22;18.67;;;10.33;;
10458;SDS011;5277;48.722;8.736;2024-01-10T01:45:50;23.13;;;9.90;;
10458;SDS011;5277;48.722;8.736;2024-01-10T01:48:20;19.70;;;9.80;;
10458;SDS011;5277;48.722;8.736;2024-01-10T01:50:48;19.13;;;10.40;;
10458;SDS011;5277;48.722;8.736;2024-01-10T01:53:17;21.10;;;10.33;;
10458;SDS011;5277;48.722;8.736;2024-01-10T01:55:44;23.30;;;12.03;;
10458;SDS011;5277;48.722;8.736;2024-01-10T01:58:10;23.77;;;10.50;;
10458;SDS011;5277;48.722;8.736;2024-01-10T02:00:37;20.87;;;10.50;;
10458;SDS011;5277;48.722;8.736;2024-01-10T02:03:04;25.13;;;10.87;;
10458;SDS011;5277;48.722;8.736;2024-01-10T02:05:31;20.73;;;10.70;;
10458;SDS011;5277;48.722;8.736;2024-01-10T02:07:57;26.50;;;10.63;;
10458;SDS011;5277;48.722;8.736;2024-01-10T02:10:23;21.73;;;11.10;;
10458;SDS011;5277;48.722;8.736;2024-01-10T02:12:48;19.50;;;10.20;;
10458;SDS011;5277;48.722;8.736;2024-01-10T02:15:14;24.33;;;10.10;;
10458;SDS011;5277;48.722;8.736;2024-01-10T02:17:40;20.23;;;10.67;;
10458;SDS011;5277;48.722;8.736;2024-01-10T02:20:13;21.60;;;10.40;;
10458;SDS011;5277;48.722;8.736;2024-01-10T02:22:41;22.63;;;10.90;;
10458;SDS011;5277;48.722;8.736;2024-01-10T02:25:11;23.93;;;11.50;;
10458;SDS011;5277;48.722;8.736;2024-01-10T02:27:37;26.63;;;10.77;;
10458;SDS011;5277;48.722;8.736;2024-01-10T02:30:04;20.33;;;9.30;;
10458;SDS011;5277;48.722;8.736;2024-01-10T02:32:31;19.87;;;9.50;;
10458;SDS011;5277;48.722;8.736;2024-01-10T02:34:58;19.47;;;10.20;;
10458;SDS011;5277;48.722;8.736;2024-01-10T02:37:24;25.93;;;9.40;;
10458;SDS011;5277;48.722;8.736;2024-01-10T02:39:49;22.27;;;10.83;;
10458;SDS011;5277;48.722;8.736;2024-01-10T02:42:15;16.97;;;9.40;;
10458;SDS011;5277;48.722;8.736;2024-01-10T02:44:41;17.80;;;9.53;;
10458;SDS011;5277;48.722;8.736;2024-01-10T02:47:07;19.23;;;9.73;;
10458;SDS011;5277;48.722;8.736;2024-01-10T02:49:34;22.53;;;9.97;;
10458;SDS011;5277;48.722;8.736;2024-01-10T02:51:59;21.57;;;10.30;;
10458;SDS011;5277;48.722;8.736;2024-01-10T02:54:25;22.23;;;10.10;;
10458;SDS011;5277;48.722;8.736;2024-01-10T02:56:51;22.23;;;9.83;;
10458;SDS011;5277;48.722;8.736;2024-01-10T02:59:16;20.33;;;9.07;;
10458;SDS011;5277;48.722;8.736;2024-01-10T03:01:42;21.27;;;10.03;;
10458;SDS011;5277;48.722;8.736;2024-01-10T03:04:08;19.13;;;9.17;;
10458;SDS011;5277;48.722;8.736;2024-01-10T03:06:34;23.80;;;10.27;;
10458;SDS011;5277;48.722;8.736;2024-01-10T03:08:59;19.00;;;9.60;;
10458;SDS011;5277;48.722;8.736;2024-01-10T03:11:25;22.90;;;11.03;;
10458;SDS011;5277;48.722;8.736;2024-01-10T03:13:52;19.50;;;9.83;;
10458;SDS011;5277;48.722;8.736;2024-01-10T03:16:18;22.30;;;9.63;;
10458;SDS011;5277;48.722;8.736;2024-01-10T03:18:44;19.20;;;9.33;;
10458;SDS011;5277;48.722;8.736;2024-01-10T03:21:09;21.30;;;9.33;;
10458;SDS011;5277;48.722;8.736;2024-01-10T03:23:35;20.00;;;9.60;;
10458;SDS011;5277;48.722;8.736;2024-01-10T03:26:00;16.03;;;8.87;;
10458;SDS011;5277;48.722;8.736;2024-01-10T03:28:26;17.90;;;8.97;;
10458;SDS011;5277;48.722;8.736;2024-01-10T03:30:51;20.90;;;10.40;;
10458;SDS011;5277;48.722;8.736;2024-01-10T03:33:17;17.83;;;9.23;;
10458;SDS011;5277;48.722;8.736;2024-01-10T03:35:43;17.37;;;9.23;;
10458;SDS011;5277;48.722;8.736;2024-01-10T03:38:08;21.90;;;9.63;;
10458;SDS011;5277;48.722;8.736;2024-01-10T03:40:34;22.37;;;10.47;;
10458;SDS011;5277;48.722;8.736;2024-01-10T03:43:00;20.50;;;9.57;;
10458;SDS011;5277;48.722;8.736;2024-01-10T03:45:25;23.67;;;9.50;;
10458;SDS011;5277;48.722;8.736;2024-01-10T03:47:51;16.13;;;8.90;;
10458;SDS011;5277;48.722;8.736;2024-01-10T03:50:20;18.73;;;10.00;;
10458;SDS011;5277;48.722;8.736;2024-01-10T03:52:46;19.93;;;9.80;;
10458;SDS011;5277;48.722;8.736;2024-01-10T03:55:12;20.60;;;9.53;;
10458;SDS011;5277;48.722;8.736;2024-01-10T03:57:38;18.53;;;9.43;;
10458;SDS011;5277;48.722;8.736;2024-01-10T04:00:05;20.90;;;9.60;;
10458;SDS011;5277;48.722;8.736;2024-01-10T04:02:31;19.87;;;9.30;;
10458;SDS011;5277;48.722;8.736;2024-01-10T04:04:57;21.43;;;9.97;;
10458;SDS011;5277;48.722;8.736;2024-01-10T04:07:23;18.80;;;9.80;;
10458;SDS011;5277;48.722;8.736;2024-01-10T04:09:48;21.83;;;10.03;;
10458;SDS011;5277;48.722;8.736;2024-01-10T04:12:14;22.17;;;9.53;;
10458;SDS011;5277;48.722;8.736;2024-01-10T04:14:39;17.87;;;9.93;;
10458;SDS011;5277;48.722;8.736;2024-01-10T04:17:05;19.67;;;9.00;;
10458;SDS011;5277;48.722;8.736;2024-01-10T04:19:32;23.07;;;10.43;;
10458;SDS011;5277;48.722;8.736;2024-01-10T04:21:58;19.03;;;9.83;;
10458;SDS011;5277;48.722;8.736;2024-01-10T04:24:24;18.13;;;9.63;;
10458;SDS011;5277;48.722;8.736;2024-01-10T04:26:49;20.67;;;9.27;;
10458;SDS011;5277;48.722;8.736;2024-01-10T04:29:15;20.23;;;11.03;;
10458;SDS011;5277;48.722;8.736;2024-01-10T04:31:41;23.30;;;11.07;;
10458;SDS011;5277;48.722;8.736;2024-01-10T04:34:06;19.90;;;10.27;;
10458;SDS011;5277;48.722;8.736;2024-01-10T04:36:32;20.80;;;10.03;;
10458;SDS011;5277;48.722;8.736;2024-01-10T04:38:58;20.67;;;9.80;;
10458;SDS011;5277;48.722;8.736;2024-01-10T04:41:23;19.07;;;10.47;;
10458;SDS011;5277;48.722;8.736;2024-01-10T04:43:50;23.07;;;10.63;;
10458;SDS011;5277;48.722;8.736;2024-01-10T04:46:16;26.93;;;12.60;;
10458;SDS011;5277;48.722;8.736;2024-01-10T04:48:42;21.00;;;11.13;;
10458;SDS011;5277;48.722;8.736;2024-01-10T04:51:07;26.33;;;12.07;;
10458;SDS011;5277;48.722;8.736;2024-01-10T04:53:33;24.30;;;11.93;;
10458;SDS011;5277;48.722;8.736;2024-01-10T04:55:59;23.67;;;11.63;;
10458;SDS011;5277;48.722;8.736;2024-01-10T04:58:24;24.07;;;12.07;;
10458;SDS011;5277;48.722;8.736;2024-01-10T05:00:50;20.77;;;10.20;;
10458;SDS011;5277;48.722;8.736;2024-01-10T05:03:16;21.07;;;10.07;;
10458;SDS011;5277;48.722;8.736;2024-01-10T05:05:42;19.97;;;10.10;;
10458;SDS011;5277;48.722;8.736;2024-01-10T05:08:07;20.97;;;9.97;;
10458;SDS011;5277;48.722;8.736;2024-01-10T05:10:33;22.27;;;10.20;;
10458;SDS011;5277;48.722;8.736;2024-01-10T05:12:59;15.23;;;9.20;;
10458;SDS011;5277;48.722;8.736;2024-01-10T05:15:24;22.10;;;10.63;;
10458;SDS011;5277;48.722;8.736;2024-01-10T05:17:50;21.03;;;10.97;;
10458;SDS011;5277;48.722;8.736;2024-01-10T05:20:16;22.60;;;10.93;;
10458;SDS011;5277;48.722;8.736;2024-01-10T05:22:41;20.67;;;10.03;;
10458;SDS011;5277;48.722;8.736;2024-01-10T05:25:08;18.30;;;8.77;;
10458;SDS011;5277;48.722;8.736;2024-01-10T05:27:33;20.07;;;9.50;;
10458;SDS011;5277;48.722;8.736;2024-01-10T05:29:59;17.40;;;9.23;;
10458;SDS011;5277;48.722;8.736;2024-01-10T05:32:25;16.33;;;8.77;;
10458;SDS011;5277;48.722;8.736;2024-01-10T05:34:51;18.30;;;9.37;;
10458;SDS011;5277;48.722;8.736;2024-01-10T05:37:17;16.87;;;8.93;;
10458;SDS011;5277;48.722;8.736;2024-01-10T05:39:43;19.23;;;9.63;;
10458;SDS011;5277;48.722;8.736;2024-01-10T05:42:08;16.83;;;8.67;;
10458;SDS011;5277;48.722;8.736;2024-01-10T05:44:34;15.40;;;8.10;;
10458;SDS011;5277;48.722;8.736;2024-01-10T05:46:59;19.83;;;8.63;;
10458;SDS011;5277;48.722;8.736;2024-01-10T05:49:25;17.50;;;8.83;;
10458;SDS011;5277;48.722;8.736;2024-01-10T05:51:51;17.60;;;8.43;;
10458;SDS011;5277;48.722;8.736;2024-01-10T05:54:17;18.33;;;9.60;;
10458;SDS011;5277;48.722;8.736;2024-01-10T05:56:45;22.53;;;8.83;;
10458;SDS011;5277;48.722;8.736;2024-01-10T05:59:10;18.33;;;8.90;;
10458;SDS011;5277;48.722;8.736;2024-01-10T06:01:36;13.70;;;8.37;;
10458;SDS011;5277;48.722;8.736;2024-01-10T06:04:05;18.90;;;8.57;;
10458;SDS011;5277;48.722;8.736;2024-01-10T06:06:31;17.80;;;9.30;;
10458;SDS011;5277;48.722;8.736;2024-01-10T06:08:57;20.97;;;9.30;;
10458;SDS011;5277;48.722;8.736;2024-01-10T06:11:23;20.90;;;9.33;;
10458;SDS011;5277;48.722;8.736;2024-01-10T06:13:48;18.13;;;9.20;;
10458;SDS011;5277;48.722;8.736;2024-01-10T06:16:14;14.57;;;7.90;;
10458;SDS011;5277;48.722;8.736;2024-01-10T06:18:39;17.37;;;8.67;;
10458;SDS011;5277;48.722;8.736;2024-01-10T06:21:05;22.00;;;9.23;;
10458;SDS011;5277;48.722;8.736;2024-01-10T06:23:31;21.13;;;10.17;;
10458;SDS011;5277;48.722;8.736;2024-01-10T06:25:56;20.37;;;10.57;;
10458;SDS011;5277;48.722;8.736;2024-01-10T06:28:22;16.70;;;8.43;;
10458;SDS011;5277;48.722;8.736;2024-01-10T06:30:48;15.57;;;9.00;;
10458;SDS011;5277;48.722;8.736;2024-01-10T06:33:14;18.17;;;8.37;;
10458;SDS011;5277;48.722;8.736;2024-01-10T06:35:40;19.67;;;8.53;;
10458;SDS011;5277;48.722;8.736;2024-01-10T06:38:08;20.70;;;9.57;;
10458;SDS011;5277;48.722;8.736;2024-01-10T06:40:34;16.10;;;8.60;;
10458;SDS011;5277;48.722;8.736;2024-01-10T06:43:00;17.37;;;8.80;;
10458;SDS011;5277;48.722;8.736;2024-01-10T06:45:26;17.33;;;8.87;;
10458;SDS011;5277;48.722;8.736;2024-01-10T06:47:52;22.07;;;9.33;;
10458;SDS011;5277;48.722;8.736;2024-01-10T06:50:17;21.07;;;9.77;;
10458;SDS011;5277;48.722;8.736;2024-01-10T06:52:45;20.03;;;9.23;;
10458;SDS011;5277;48.722;8.736;2024-01-10T06:55:11;17.97;;;8.40;;
10458;SDS011;5277;48.722;8.736;2024-01-10T06:57:36;20.47;;;9.70;;
10458;SDS011;5277;48.722;8.736;2024-01-10T07:00:02;18.23;;;9.00;;
10458;SDS011;5277;48.722;8.736;2024-01-10T07:02:31;15.43;;;8.20;;
10458;SDS011;5277;48.722;8.736;2024-01-10T07:04:57;17.50;;;8.83;;
10458;SDS011;5277;48.722;8.736;2024-01-10T07:07:23;20.83;;;9.70;;
10458;SDS011;5277;48.722;8.736;2024-01-10T07:09:48;17.27;;;8.03;;
10458;SDS011;5277;48.722;8.736;2024-01-10T07:12:14;17.37;;;8.73;;
10458;SDS011;5277;48.722;8.736;2024-01-10T07:14:39;20.00;;;9.20;;
10458;SDS011;5277;48.722;8.736;2024-01-10T07:17:05;21.87;;;9.00;;
10458;SDS011;5277;48.722;8.736;2024-01-10T07:19:31;17.43;;;8.50;;
10458;SDS011;5277;48.722;8.736;2024-01-10T07:21:57;21.17;;;9.67;;
10458;SDS011;5277;48.722;8.736;2024-01-10T07:24:22;16.63;;;8.20;;
10458;SDS011;5277;48.722;8.736;2024-01-10T07:26:48;17.17;;;8.90;;
10458;SDS011;5277;48.722;8.736;2024-01-10T07:29:13;18.67;;;9.13;;
10458;SDS011;5277;48.722;8.736;2024-01-10T07:31:39;17.73;;;9.20;;
10458;SDS011;5277;48.722;8.736;2024-01-10T07:34:05;18.37;;;9.13;;
10458;SDS011;5277;48.722;8.736;2024-01-10T07:36:32;16.10;;;8.40;;
10458;SDS011;5277;48.722;8.736;2024-01-10T07:39:00;15.70;;;8.03;;
10458;SDS011;5277;48.722;8.736;2024-01-10T07:41:26;17.23;;;8.60;;
10458;SDS011;5277;48.722;8.736;2024-01-10T07:43:52;20.87;;;9.80;;
10458;SDS011;5277;48.722;8.736;2024-01-10T07:46:17;15.87;;;8.20;;
10458;SDS011;5277;48.722;8.736;2024-01-10T07:48:43;19.87;;;8.90;;
10458;SDS011;5277;48.722;8.736;2024-01-10T07:51:08;17.53;;;8.23;;
10458;SDS011;5277;48.722;8.736;2024-01-10T07:53:34;15.33;;;8.53;;
10458;SDS011;5277;48.722;8.736;2024-01-10T07:56:01;25.23;;;10.33;;
10458;SDS011;5277;48.722;8.736;2024-01-10T07:58:26;18.87;;;9.40;;
10458;SDS011;5277;48.722;8.736;2024-01-10T08:00:52;16.53;;;9.10;;
10458;SDS011;5277;48.722;8.736;2024-01-10T08:03:19;18.33;;;9.50;;
10458;SDS011;5277;48.722;8.736;2024-01-10T08:05:44;18.40;;;9.37;;
10458;SDS011;5277;48.722;8.736;2024-01-10T08:08:11;23.63;;;9.47;;
10458;SDS011;5277;48.722;8.736;2024-01-10T08:10:38;20.83;;;10.47;;
10458;SDS011;5277;48.722;8.736;2024-01-10T08:13:05;23.00;;;10.73;;
10458;SDS011;5277;48.722;8.736;2024-01-10T08:15:30;23.20;;;10.07;;
10458;SDS011;5277;48.722;8.736;2024-01-10T08:17:59;17.83;;;10.00;;
10458;SDS011;5277;48.722;8.736;2024-01-10T08:20:27;22.60;;;9.70;;
10458;SDS011;5277;48.722;8.736;2024-01-10T08:22:53;21.90;;;9.77;;
10458;SDS011;5277;48.722;8.736;2024-01-10T08:25:19;26.33;;;10.13;;
10458;SDS011;5277;48.722;8.736;2024-01-10T08:27:45;22.77;;;10.00;;
10458;SDS011;5277;48.722;8.736;2024-01-10T08:30:10;24.07;;;11.30;;
10458;SDS011;5277;48.722;8.736;2024-01-10T08:32:36;21.57;;;9.40;;
10458;SDS011;5277;48.722;8.736;2024-01-10T08:35:03;18.77;;;10.20;;
10458;SDS011;5277;48.722;8.736;2024-01-10T08:37:33;20.33;;;11.33;;
10458;SDS011;5277;48.722;8.736;2024-01-10T08:39:59;20.40;;;10.00;;
10458;SDS011;5277;48.722;8.736;2024-01-10T08:42:26;22.03;;;11.03;;
10458;SDS011;5277;48.722;8.736;2024-01-10T08:44:52;21.70;;;10.20;;
10458;SDS011;5277;48.722;8.736;2024-01-10T08:47:18;19.43;;;10.60;;
10458;SDS011;5277;48.722;8.736;2024-01-10T08:49:44;19.43;;;10.13;;
10458;SDS011;5277;48.722;8.736;2024-01-10T08:52:10;25.27;;;12.47;;
10458;SDS011;5277;48.722;8.736;2024-01-10T08:54:36;24.23;;;14.00;;
10458;SDS011;5277;48.722;8.736;2024-01-10T08:57:02;21.33;;;12.13;;
10458;SDS011;5277;48.722;8.736;2024-01-10T08:59:28;21.90;;;10.23;;
10458;SDS011;5277;48.722;8.736;2024-01-10T09:01:54;27.57;;;10.10;;
10458;SDS011;5277;48.722;8.736;2024-01-10T09:04:19;23.07;;;11.97;;
10458;SDS011;5277;48.722;8.736;2024-01-10T09:06:45;28.27;;;13.33;;
10458;SDS011;5277;48.722;8.736;2024-01-10T09:09:11;23.17;;;11.80;;
10458;SDS011;5277;48.722;8.736;2024-01-10T09:11:38;27.83;;;12.43;;
10458;SDS011;5277;48.722;8.736;2024-01-10T09:14:03;21.93;;;12.10;;
10458;SDS011;5277;48.722;8.736;2024-01-10T09:16:29;21.50;;;10.47;;
10458;SDS011;5277;48.722;8.736;2024-01-10T09:18:54;23.33;;;11.83;;
10458;SDS011;5277;48.722;8.736;2024-01-10T09:21:22;23.30;;;11.67;;
10458;SDS011;5277;48.722;8.736;2024-01-10T09:23:49;25.07;;;12.60;;
10458;SDS011;5277;48.722;8.736;2024-01-10T09:26:16;22.07;;;11.50;;
10458;SDS011;5277;48.722;8.736;2024-01-10T09:28:43;23.77;;;11.87;;
10458;SDS011;5277;48.722;8.736;2024-01-10T09:31:08;27.00;;;12.73;;
10458;SDS011;5277;48.722;8.736;2024-01-10T09:33:34;23.23;;;12.53;;
10458;SDS011;5277;48.722;8.736;2024-01-10T09:36:00;25.93;;;12.77;;
10458;SDS011;5277;48.722;8.736;2024-01-10T09:38:25;24.27;;;12.57;;
10458;SDS011;5277;48.722;8.736;2024-01-10T09:40:52;26.13;;;12.70;;
10458;SDS011;5277;48.722;8.736;2024-01-10T09:43:24;23.37;;;12.57;;
10458;SDS011;5277;48.722;8.736;2024-01-10T09:45:49;30.20;;;12.30;;
10458;SDS011;5277;48.722;8.736;2024-01-10T09:48:15;26.17;;;13.17;;
10458;SDS011;5277;48.722;8.736;2024-01-10T09:50:41;28.47;;;12.90;;
10458;SDS011;5277;48.722;8.736;2024-01-10T09:53:07;21.67;;;12.77;;
10458;SDS011;5277;48.722;8.736;2024-01-10T09:55:42;23.30;;;12.87;;
10458;SDS011;5277;48.722;8.736;2024-01-10T09:58:08;24.20;;;12.40;;
10458;SDS011;5277;48.722;8.736;2024-01-10T10:00:35;28.40;;;13.50;;
10458;SDS011;5277;48.722;8.736;2024-01-10T10:03:02;28.63;;;12.80;;
10458;SDS011;5277;48.722;8.736;2024-01-10T10:05:32;22.70;;;11.80;;
10458;SDS011;5277;48.722;8.736;2024-01-10T10:07:59;27.40;;;13.07;;
10458;SDS011;5277;48.722;8.736;2024-01-10T10:10:24;28.27;;;12.77;;
10458;SDS011;5277;48.722;8.736;2024-01-10T10:12:52;27.83;;;13.13;;
10458;SDS011;5277;48.722;8.736;2024-01-10T10:15:18;26.47;;;12.67;;
10458;SDS011;5277;48.722;8.736;2024-01-10T10:17:47;25.57;;;11.70;;
10458;SDS011;5277;48.722;8.736;2024-01-10T10:22:57;26.60;;;12.63;;
10458;SDS011;5277;48.722;8.736;2024-01-10T10:25:36;19.60;;;11.23;;
10458;SDS011;5277;48.722;8.736;2024-01-10T10:28:07;24.43;;;12.27;;
10458;SDS011;5277;48.722;8.736;2024-01-10T10:30:33;25.70;;;13.07;;
10458;SDS011;5277;48.722;8.736;2024-01-10T10:32:59;27.37;;;12.67;;
10458;SDS011;5277;48.722;8.736;2024-01-10T10:35:24;27.27;;;13.33;;
10458;SDS011;5277;48.722;8.736;2024-01-10T10:37:51;24.93;;;12.43;;
10458;SDS011;5277;48.722;8.736;2024-01-10T10:40:18;27.63;;;13.40;;
10458;SDS011;5277;48.722;8.736;2024-01-10T10:42:48;24.00;;;11.83;;
10458;SDS011;5277;48.722;8.736;2024-01-10T10:45:18;23.57;;;11.73;;
10458;SDS011;5277;48.722;8.736;2024-01-10T10:47:45;27.37;;;12.47;;
10458;SDS011;5277;48.722;8.736;2024-01-10T10:50:18;24.67;;;12.83;;
10458;SDS011;5277;48.722;8.736;2024-01-10T10:52:46;26.17;;;12.97;;
10458;SDS011;5277;48.722;8.736;2024-01-10T10:55:14;28.07;;;12.83;;
10458;SDS011;5277;48.722;8.736;2024-01-10T10:57:42;24.13;;;13.00;;
10458;SDS011;5277;48.722;8.736;2024-01-10T11:00:09;25.77;;;12.67;;
10458;SDS011;5277;48.722;8.736;2024-01-10T11:02:40;25.60;;;11.70;;
10458;SDS011;5277;48.722;8.736;2024-01-10T11:05:06;23.37;;;12.20;;
10458;SDS011;5277;48.722;8.736;2024-01-10T11:07:40;26.17;;;12.67;;
10458;SDS011;5277;48.722;8.736;2024-01-10T11:10:27;24.83;;;11.90;;
10458;SDS011;5277;48.722;8.736;2024-01-10T11:15:34;27.57;;;12.77;;
10458;SDS011;5277;48.722;8.736;2024-01-10T11:23:45;25.63;;;12.43;;
10458;SDS011;5277;48.722;8.736;2024-01-10T11:26:16;25.37;;;12.53;;
10458;SDS011;5277;48.722;8.736;2024-01-10T11:28:43;21.37;;;12.27;;
10458;SDS011;5277;48.722;8.736;2024-01-10T11:31:09;24.53;;;12.60;;
10458;SDS011;5277;48.722;8.736;2024-01-10T11:33:36;29.17;;;12.53;;
10458;SDS011;5277;48.722;8.736;2024-01-10T11:36:19;25.30;;;12.47;;
10458;SDS011;5277;48.722;8.736;2024-01-10T11:41:22;21.43;;;11.43;;
10458;SDS011;5277;48.722;8.736;2024-01-10T11:46:34;25.63;;;12.40;;
10458;SDS011;5277;48.722;8.736;2024-01-10T11:48:59;30.47;;;12.93;;
10458;SDS011;5277;48.722;8.736;2024-01-10T11:51:25;24.00;;;13.00;;
10458;SDS011;5277;48.722;8.736;2024-01-10T11:53:51;23.90;;;12.00;;
10458;SDS011;5277;48.722;8.736;2024-01-10T11:56:18;23.50;;;12.13;;
10458;SDS011;5277;48.722;8.736;2024-01-10T11:58:53;21.67;;;11.80;;
10458;SDS011;5277;48.722;8.736;2024-01-10T12:01:33;24.53;;;12.47;;
10458;SDS011;5277;48.722;8.736;2024-01-10T12:03:59;26.60;;;12.57;;
10458;SDS011;5277;48.722;8.736;2024-01-10T12:06:25;23.73;;;11.67;;
10458;SDS011;5277;48.722;8.736;2024-01-10T12:08:51;24.20;;;12.20;;
10458;SDS011;5277;48.722;8.736;2024-01-10T12:11:17;24.17;;;12.50;;
10458;SDS011;5277;48.722;8.736;2024-01-10T12:13:43;26.60;;;13.27;;
10458;SDS011;5277;48.722;8.736;2024-01-10T12:16:09;19.80;;;12.00;;
10458;SDS011;5277;48.722;8.736;2024-01-10T12:18:36;26.93;;;12.13;;
10458;SDS011;5277;48.722;8.736;2024-01-10T12:21:02;22.73;;;12.60;;
10458;SDS011;5277;48.722;8.736;2024-01-10T12:23:27;23.67;;;12.07;;
10458;SDS011;5277;48.722;8.736;2024-01-10T12:25:56;22.87;;;12.83;;
10458;SDS011;5277;48.722;8.736;2024-01-10T12:28:22;23.77;;;12.47;;
10458;SDS011;5277;48.722;8.736;2024-01-10T12:30:48;21.47;;;12.03;;
10458;SDS011;5277;48.722;8.736;2024-01-10T12:33:14;28.30;;;13.83;;
10458;SDS011;5277;48.722;8.736;2024-01-10T12:35:39;21.47;;;12.17;;
10458;SDS011;5277;48.722;8.736;2024-01-10T12:38:07;21.93;;;12.00;;
10458;SDS011;5277;48.722;8.736;2024-01-10T12:40:35;22.20;;;12.33;;
10458;SDS011;5277;48.722;8.736;2024-01-10T12:43:04;28.30;;;13.03;;
10458;SDS011;5277;48.722;8.736;2024-01-10T12:45:30;25.67;;;13.37;;
10458;SDS011;5277;48.722;8.736;2024-01-10T12:47:59;22.27;;;12.20;;
10458;SDS011;5277;48.722;8.736;2024-01-10T12:50:25;23.37;;;12.77;;
10458;SDS011;5277;48.722;8.736;2024-01-10T12:52:50;23.27;;;12.43;;
10458;SDS011;5277;48.722;8.736;2024-01-10T12:55:16;22.13;;;12.23;;
10458;SDS011;5277;48.722;8.736;2024-01-10T12:57:42;25.87;;;12.07;;
10458;SDS011;5277;48.722;8.736;2024-01-10T13:00:10;20.47;;;11.97;;
10458;SDS011;5277;48.722;8.736;2024-01-10T13:02:36;23.93;;;12.80;;
10458;SDS011;5277;48.722;8.736;2024-01-10T13:05:05;25.57;;;12.53;;
10458;SDS011;5277;48.722;8.736;2024-01-10T13:07:35;21.90;;;12.43;;
10458;SDS011;5277;48.722;8.736;2024-01-10T13:10:01;27.07;;;13.40;;
10458;SDS011;5277;48.722;8.736;2024-01-10T13:12:27;27.67;;;13.47;;
10458;SDS011;5277;48.722;8.736;2024-01-10T13:14:52;25.80;;;13.90;;
10458;SDS011;5277;48.722;8.736;2024-01-10T13:17:18;28.87;;;13.30;;
10458;SDS011;5277;48.722;8.736;2024-01-10T13:19:44;24.20;;;12.77;;
10458;SDS011;5277;48.722;8.736;2024-01-10T13:22:13;25.13;;;14.40;;
10458;SDS011;5277;48.722;8.736;2024-01-10T13:24:43;26.27;;;13.83;;
10458;SDS011;5277;48.722;8.736;2024-01-10T13:27:12;25.20;;;12.23;;
10458;SDS011;5277;48.722;8.736;2024-01-10T13:29:37;25.37;;;13.17;;
10458;SDS011;5277;48.722;8.736;2024-01-10T13:32:04;26.30;;;13.30;;
10458;SDS011;5277;48.722;8.736;2024-01-10T13:34:30;22.17;;;13.30;;
10458;SDS011;5277;48.722;8.736;2024-01-10T13:36:56;27.83;;;14.00;;
10458;SDS011;5277;48.722;8.736;2024-01-10T13:39:23;24.07;;;13.97;;
10458;SDS011;5277;48.722;8.736;2024-01-10T13:41:48;30.90;;;14.77;;
10458;SDS011;5277;48.722;8.736;2024-01-10T13:44:14;27.33;;;14.20;;
10458;SDS011;5277;48.722;8.736;2024-01-10T13:46:39;26.27;;;13.13;;
10458;SDS011;5277;48.722;8.736;2024-01-10T13:49:06;27.57;;;11.90;;
10458;SDS011;5277;48.722;8.736;2024-01-10T13:51:32;25.90;;;12.10;;
10458;SDS011;5277;48.722;8.736;2024-01-10T13:53:57;23.03;;;12.83;;
10458;SDS011;5277;48.722;8.736;2024-01-10T13:56:23;27.27;;;13.50;;
10458;SDS011;5277;48.722;8.736;2024-01-10T13:58:49;27.27;;;13.77;;
10458;SDS011;5277;48.722;8.736;2024-01-10T14:01:15;26.07;;;13.73;;
10458;SDS011;5277;48.722;8.736;2024-01-10T14:03:40;27.60;;;14.13;;
10458;SDS011;5277;48.722;8.736;2024-01-10T14:06:06;28.53;;;15.20;;
10458;SDS011;5277;48.722;8.736;2024-01-10T14:08:32;28.20;;;14.73;;
10458;SDS011;5277;48.722;8.736;2024-01-10T14:10:59;25.90;;;13.90;;
10458;SDS011;5277;48.722;8.736;2024-01-10T14:13:24;44.60;;;26.23;;
10458;SDS011;5277;48.722;8.736;2024-01-10T14:15:50;41.27;;;21.97;;
10458;SDS011;5277;48.722;8.736;2024-01-10T14:18:15;33.33;;;18.40;;
10458;SDS011;5277;48.722;8.736;2024-01-10T14:20:41;30.60;;;15.83;;
10458;SDS011;5277;48.722;8.736;2024-01-10T14:23:07;33.03;;;17.80;;
10458;SDS011;5277;48.722;8.736;2024-01-10T14:25:32;27.80;;;15.80;;
10458;SDS011;5277;48.722;8.736;2024-01-10T14:27:58;27.20;;;15.20;;
10458;SDS011;5277;48.722;8.736;2024-01-10T14:30:24;27.03;;;13.80;;
10458;SDS011;5277;48.722;8.736;2024-01-10T14:32:50;27.63;;;14.17;;
10458;SDS011;5277;48.722;8.736;2024-01-10T14:35:16;28.77;;;14.70;;
10458;SDS011;5277;48.722;8.736;2024-01-10T14:37:41;25.90;;;14.37;;
10458;SDS011;5277;48.722;8.736;2024-01-10T14:40:07;22.47;;;13.50;;
10458;SDS011;5277;48.722;8.736;2024-01-10T14:42:33;27.37;;;14.97;;
10458;SDS011;5277;48.722;8.736;2024-01-10T14:44:59;27.77;;;14.87;;
10458;SDS011;5277;48.722;8.736;2024-01-10T14:47:25;23.50;;;13.40;;
10458;SDS011;5277;48.722;8.736;2024-01-10T14:49:51;29.23;;;15.07;;